Aeroporto :
LOGIN :

Iscrizione | Disclaimer

   EN    FR    IT 

 










Sommario :    VFR   VFR Marginale   IFR   IFR Intensivo   IFR Molto Intensivo
Visibilità : 
Base nubi : 
>= 8 km
>= 3000ft
5 / 8 km
1000 / 3000 ft
1500m / 5 km
500 / 1000 ft
800 / 1500m
200 / 500 ft
< 800m
< 200 ft
Simboli :   Temporali  Nebbia  Neve Forte  Precipitazioni Forti  Vento > 20 kt
SIGMETs :   Varie  Temporali  Ghiacco  Turbolenza  Onda orograficha  Ceneri Vulcaniche







- Altitudine del aeroporto : 330 ft
- Codice IATA : LVA
- Carte del aeroporto


LFOV - Laval-Entrammes

ULTIMO METAR :
  • 180630Z AUTO 02003KT CAVOK 16/14 Q1013

METARs OBSOLETI :
  • 180600Z AUTO 03003KT CAVOK 16/14 Q1013
  • 180530Z AUTO 03003KT CAVOK 16/14 Q1013
  • 180500Z AUTO 02004KT CAVOK 16/14 Q1013
  • 180430Z AUTO 01004KT CAVOK 15/14 Q1013
  • 180400Z AUTO 35004KT CAVOK 15/14 Q1013

TAF N/A
Nessun NOTAM noto per questo aeroporto.
2 SIGMETs conosciuti per la FIR Brest (LFRR) :
 
Temporali affogati
LFRR SIGMET 3 VALID 180630/180800 LFPW
LFRR BREST FIR/UIR EMBD TS OBS WI N4730 W00245 - N4615 W00215 - N4600 W00330 - N4700 W00400 - N4730 W00245 TOP FL320 MOV NE 10KT NC=
Cancellazione del SIGMET 1 
LFRR SIGMET 2 VALID 180425/180600 LFPW
LFRR BREST FIR/UIR CNL SIGMET 1 180400/180600=



MetMap, La meteo Aeronautica in un colpo d'occhio ! - Copyright ORBIFLY Dicembre 2007 - Disclaimer

ORBIFLY MET'MAP TEAM :

Programmazione e sviluppo : Alexandra Zaïnal
Concezione e sviluppo : Baudouin d'Aumeries
Co-Programmazione e sviluppo : Marc-Olivier Méhu
Supporto tecnico e logistico : Manuel Goepfert
Aiuto per la traduzione : Arnaldo La Scala

Contatto : metmap@orbifly.com




FONTI E CREDITI :

   NOAA